Time;durP1;ratioP1;P1;durP2;ratioP2;P2;SDS_P1;SDS_P2;PMS_P1;PMS_P2;Temp;Humidity;BMP_temperature;BMP_pressure;BME280_temperature;BME280_humidity;BME280_pressure;Samples;Min_cycle;Max_cycle;Signal;HPM_P1;HPM_P2
2022/09/18 00:01:17;;;;;;;0.13;0.13;;;;;;;11.54;83.36;94059.64;1829875;78;20995;-70
2022/09/18 00:03:43;;;;;;;0.23;0.20;;;;;;;11.47;82.81;94059.53;1829534;78;21022;-70
2022/09/18 00:06:18;;;;;;;0.10;0.10;;;;;;;11.37;83.45;94064.84;1829543;78;21007;-70
2022/09/18 00:08:45;;;;;;;0.15;0.15;;;;;;;11.30;83.63;94076.14;1829724;78;21027;-70
2022/09/18 00:11:15;;;;;;;0.10;0.10;;;;;;;11.24;83.86;94087.84;1829314;78;21015;-70
2022/09/18 00:13:42;;;;;;;1.25;0.20;;;;;;;11.22;83.33;94078.28;1829989;78;20944;-70
2022/09/18 00:16:13;;;;;;;0.20;0.20;;;;;;;11.12;83.03;94079.63;1829846;78;21015;-70
2022/09/18 00:18:40;;;;;;;3.85;0.30;;;;;;;11.07;82.61;94101.41;1829571;78;20960;-70
2022/09/18 00:21:17;;;;;;;0.20;0.20;;;;;;;11.03;83.08;94096.25;1829486;78;20976;-70
2022/09/18 00:23:45;;;;;;;2.00;0.30;;;;;;;11.02;82.77;94095.02;1804272;78;20979;-69
2022/09/18 00:26:15;;;;;;;0.62;0.30;;;;;;;10.97;82.91;94079.37;1829525;78;21019;-70
2022/09/18 00:28:42;;;;;;;0.10;0.10;;;;;;;10.90;82.60;94079.72;1829931;78;21497;-69
2022/09/18 00:31:16;;;;;;;0.60;0.23;;;;;;;10.86;83.57;94084.72;1829397;78;20976;-69
2022/09/18 00:33:44;;;;;;;0.10;0.10;;;;;;;10.85;83.42;94083.88;1829587;78;21030;-69
2022/09/18 00:36:14;;;;;;;0.10;0.10;;;;;;;10.82;82.51;94080.05;1829369;78;21501;-70
2022/09/18 00:38:42;;;;;;;0.20;0.20;;;;;;;10.70;82.61;94086.71;1829766;78;21481;-70
2022/09/18 00:41:13;;;;;;;0.45;0.20;;;;;;;10.61;82.16;94094.57;1831019;78;21060;-70
2022/09/18 00:43:40;;;;;;;0.10;0.10;;;;;;;10.53;82.32;94106.35;1831764;78;21011;-70
2022/09/18 00:46:32;;;;;;;0.80;0.17;;;;;;;10.44;81.63;94102.34;1831806;78;21051;-70
2022/09/18 00:49:10;;;;;;;0.20;0.20;;;;;;;10.47;82.44;94108.80;1831571;78;21000;-70
2022/09/18 00:51:39;;;;;;;0.25;0.20;;;;;;;10.49;81.99;94108.73;1831702;78;21007;-69
2022/09/18 00:54:28;;;;;;;0.42;0.33;;;;;;;10.42;82.78;94112.55;1831781;78;20995;-70
2022/09/18 00:56:59;;;;;;;0.30;0.20;;;;;;;10.43;83.01;94110.30;1831481;78;21092;-70
2022/09/18 00:59:29;;;;;;;0.45;0.20;;;;;;;10.44;83.17;94110.72;1831762;78;21036;-70
2022/09/18 01:01:58;;;;;;;0.20;0.20;;;;;;;10.46;83.45;94114.12;1831555;78;21054;-69
2022/09/18 01:04:27;;;;;;;0.20;0.20;;;;;;;10.43;83.11;94116.89;1831599;78;21019;-70
2022/09/18 01:07:27;;;;;;;0.20;0.20;;;;;;;10.45;83.33;94116.37;1831538;78;21023;-70
2022/09/18 01:10:06;;;;;;;0.20;0.20;;;;;;;10.49;83.41;94107.42;1831497;78;20991;-70
2022/09/18 01:12:44;;;;;;;0.15;0.15;;;;;;;10.48;82.71;94114.91;1821754;78;21047;-69
2022/09/18 01:15:33;;;;;;;0.20;0.20;;;;;;;10.45;82.69;94125.59;1832051;78;21119;-70
2022/09/18 01:18:20;;;;;;;0.25;0.20;;;;;;;10.34;82.68;94138.77;1831557;78;20998;-69
2022/09/18 01:21:29;;;;;;;0.30;0.20;;;;;;;10.33;83.33;94148.92;1831555;78;21015;-70
2022/09/18 01:24:45;;;;;;;0.20;0.20;;;;;;;10.35;83.03;94144.89;1831746;78;21000;-69
2022/09/18 01:27:35;;;;;;;0.20;0.20;;;;;;;10.31;83.63;94152.08;1831206;78;21071;-70
2022/09/18 01:30:11;;;;;;;0.10;0.10;;;;;;;10.37;83.86;94166.78;1831746;78;21494;-69
2022/09/18 01:32:46;;;;;;;0.10;0.10;;;;;;;10.34;83.88;94161.64;1831536;78;21548;-69
2022/09/18 01:35:29;;;;;;;0.10;0.10;;;;;;;10.19;82.30;94163.08;1796588;78;20987;-70
2022/09/18 01:38:07;;;;;;;0.10;0.10;;;;;;;10.04;82.98;94162.37;1831772;78;21007;-70
2022/09/18 01:40:47;;;;;;;0.20;0.20;;;;;;;10.02;82.64;94165.53;1830273;78;21012;-70
2022/09/18 01:43:17;;;;;;;0.20;0.20;;;;;;;9.99;82.40;94174.88;1829749;78;21047;-69
2022/09/18 01:45:48;;;;;;;0.57;0.20;;;;;;;9.96;82.37;94186.39;1831734;78;21008;-70
2022/09/18 01:48:30;;;;;;;0.17;0.17;;;;;;;9.89;82.24;94193.66;1831461;78;21485;-70
2022/09/18 01:51:09;;;;;;;0.20;0.20;;;;;;;9.82;82.15;94198.76;1831628;78;21070;-70
2022/09/18 01:53:42;;;;;;;0.30;0.25;;;;;;;9.57;81.41;94215.94;1827398;78;21378;-69
2022/09/18 01:56:17;;;;;;;0.20;0.20;;;;;;;9.52;82.77;94216.13;1831675;78;21091;-69
2022/09/18 01:58:46;;;;;;;0.28;0.28;;;;;;;9.52;83.45;94225.34;1831832;78;21039;-70
2022/09/18 02:01:16;;;;;;;0.93;0.20;;;;;;;9.52;82.66;94232.36;1831355;78;21016;-69
2022/09/18 02:03:50;;;;;;;0.20;0.20;;;;;;;9.50;82.83;94232.44;1831395;78;20952;-70
2022/09/18 02:06:40;;;;;;;0.10;0.10;;;;;;;9.35;81.72;94236.94;1831617;78;21442;-70
2022/09/18 02:09:09;;;;;;;0.23;0.23;;;;;;;9.13;81.95;94242.55;1830683;78;21513;-69
2022/09/18 02:11:41;;;;;;;0.10;0.10;;;;;;;9.05;82.32;94246.30;1831831;78;20992;-70
2022/09/18 02:14:15;;;;;;;0.20;0.20;;;;;;;9.02;83.66;94259.56;1831761;78;21396;-70
2022/09/18 02:16:52;;;;;;;0.13;0.13;;;;;;;8.98;83.69;94264.52;1825049;78;21035;-69
2022/09/18 02:19:36;;;;;;;0.33;0.28;;;;;;;8.95;83.03;94259.36;1830667;78;20972;-69
2022/09/18 02:22:06;;;;;;;0.57;0.20;;;;;;;8.98;83.37;94271.55;1831607;78;21011;-70
2022/09/18 02:24:36;;;;;;;0.30;0.20;;;;;;;9.02;83.05;94271.41;1831432;78;21039;-70
2022/09/18 02:27:07;;;;;;;0.90;0.10;;;;;;;9.02;83.10;94283.25;1831535;78;20988;-70
2022/09/18 02:29:35;;;;;;;0.50;0.20;;;;;;;8.98;82.68;94280.30;1831308;78;21016;-70
2022/09/18 02:32:03;;;;;;;0.10;0.10;;;;;;;8.90;83.25;94288.91;1831704;78;21032;-70
2022/09/18 02:34:31;;;;;;;0.20;0.20;;;;;;;8.95;83.49;94288.30;1831547;78;21035;-70
2022/09/18 02:37:31;;;;;;;0.10;0.10;;;;;;;8.97;83.63;94297.44;1831502;78;21066;-70
2022/09/18 02:40:28;;;;;;;0.10;0.10;;;;;;;8.93;82.85;94298.01;1831266;78;21058;-69
2022/09/18 02:43:18;;;;;;;0.20;0.20;;;;;;;8.95;82.35;94301.92;1835103;78;21035;-70
2022/09/18 02:46:08;;;;;;;0.10;0.10;;;;;;;8.99;83.03;94304.83;1834814;78;21008;-70
2022/09/18 02:49:09;;;;;;;0.20;0.20;;;;;;;8.92;82.04;94310.77;1834605;78;21462;-69
2022/09/18 02:51:45;;;;;;;0.20;0.20;;;;;;;8.83;82.14;94310.59;1835041;78;20986;-70
2022/09/18 02:54:26;;;;;;;0.10;0.10;;;;;;;8.83;82.30;94317.64;1835080;78;21047;-70
2022/09/18 02:57:14;;;;;;;1.00;0.30;;;;;;;8.81;82.24;94316.81;1835184;78;20964;-69
2022/09/18 02:59:46;;;;;;;0.88;0.35;;;;;;;8.80;81.45;94324.31;1834847;78;21031;-69
2022/09/18 03:02:15;;;;;;;0.42;0.25;;;;;;;8.77;82.13;94327.91;1835297;78;20952;-70
2022/09/18 03:04:43;;;;;;;0.23;0.15;;;;;;;8.81;82.59;94329.97;1834630;78;21043;-69
2022/09/18 03:07:13;;;;;;;0.20;0.20;;;;;;;8.73;80.77;94330.22;1834240;78;21028;-70
2022/09/18 03:09:43;;;;;;;0.40;0.40;;;;;;;8.62;81.05;94327.93;1835025;78;21015;-70
2022/09/18 03:12:11;;;;;;;0.30;0.30;;;;;;;8.61;81.98;94339.80;1835064;78;21007;-69
2022/09/18 03:14:40;;;;;;;0.20;0.20;;;;;;;8.62;82.70;94334.50;1835202;78;21477;-70
2022/09/18 03:17:08;;;;;;;1.57;0.40;;;;;;;8.68;82.37;94339.16;1834980;78;21020;-70
2022/09/18 03:19:35;;;;;;;0.40;0.40;;;;;;;8.60;81.62;94352.09;1834813;78;21004;-70
2022/09/18 03:22:03;;;;;;;0.30;0.30;;;;;;;8.58;81.43;94350.42;1835363;78;21437;-70
2022/09/18 03:24:31;;;;;;;0.45;0.30;;;;;;;8.51;81.86;94347.56;1834638;78;21028;-70
2022/09/18 03:26:58;;;;;;;0.50;0.40;;;;;;;8.52;82.14;94355.42;1834621;78;21086;-70
2022/09/18 03:29:26;;;;;;;0.30;0.30;;;;;;;8.49;82.40;94352.86;1835096;78;20968;-70
2022/09/18 03:31:54;;;;;;;0.20;0.20;;;;;;;8.48;83.12;94361.66;1835046;78;21511;-70
2022/09/18 03:34:22;;;;;;;0.23;0.20;;;;;;;8.52;82.86;94362.45;1835040;78;21015;-69
2022/09/18 03:36:49;;;;;;;0.28;0.28;;;;;;;8.48;82.74;94356.86;1835144;78;21035;-69
2022/09/18 03:39:17;;;;;;;0.37;0.20;;;;;;;8.43;82.05;94371.45;1835037;78;21012;-70
2022/09/18 03:41:46;;;;;;;0.30;0.30;;;;;;;8.45;82.32;94376.22;1839260;78;21501;-70
2022/09/18 03:44:13;;;;;;;0.40;0.37;;;;;;;8.50;82.53;94379.57;1840907;78;21030;-69
2022/09/18 03:46:41;;;;;;;0.20;0.20;;;;;;;8.50;82.13;94378.26;1840854;78;21050;-69
2022/09/18 03:49:08;;;;;;;0.28;0.28;;;;;;;8.50;82.21;94380.03;1840067;78;21624;-70
2022/09/18 03:51:36;;;;;;;0.30;0.30;;;;;;;8.45;82.84;94381.47;1840472;78;21023;-70
2022/09/18 03:54:05;;;;;;;0.20;0.20;;;;;;;8.41;82.25;94380.69;1840392;78;21044;-69
2022/09/18 03:56:37;;;;;;;0.45;0.30;;;;;;;8.40;82.96;94383.37;1839235;78;21054;-70
2022/09/18 03:59:22;;;;;;;0.40;0.33;;;;;;;8.37;82.41;94382.13;1840614;78;21481;-70
2022/09/18 04:01:54;;;;;;;0.20;0.20;;;;;;;8.34;83.23;94387.45;1839371;78;21039;-70
2022/09/18 04:04:27;;;;;;;0.10;0.10;;;;;;;8.31;82.66;94392.34;1841058;78;20960;-70
2022/09/18 04:07:12;;;;;;;0.20;0.20;;;;;;;8.31;83.06;94393.66;1840816;78;21007;-70
2022/09/18 04:09:55;;;;;;;;;;;;;;;8.37;83.24;94398.75;1809693;79;20986;-70
2022/09/18 04:12:22;;;;;;;0.30;0.30;;;;;;;8.32;82.21;94387.52;1829641;78;20118;-70
2022/09/18 04:14:50;;;;;;;0.30;0.20;;;;;;;8.30;81.22;94393.72;1839308;78;20979;-70
2022/09/18 04:17:17;;;;;;;0.13;0.13;;;;;;;8.25;81.31;94399.11;1840720;78;20996;-70
2022/09/18 04:19:44;;;;;;;0.20;0.20;;;;;;;8.20;81.24;94396.61;1840275;78;20968;-70
2022/09/18 04:22:11;;;;;;;0.23;0.23;;;;;;;8.23;81.40;94403.54;1840312;78;21046;-69
2022/09/18 04:24:38;;;;;;;1.55;0.10;;;;;;;8.13;82.67;94406.87;1840473;78;21075;-69
2022/09/18 04:27:06;;;;;;;0.28;0.23;;;;;;;8.14;81.17;94407.30;1840972;78;21041;-70
2022/09/18 04:29:33;;;;;;;0.10;0.10;;;;;;;8.18;82.05;94412.00;1840570;78;21490;-69
2022/09/18 04:32:00;;;;;;;0.20;0.20;;;;;;;8.16;82.75;94418.61;1840835;78;20964;-70
2022/09/18 04:34:27;;;;;;;0.60;0.10;;;;;;;8.20;82.68;94418.94;1840745;78;21044;-70
2022/09/18 04:36:53;;;;;;;1.00;0.20;;;;;;;8.23;82.96;94420.62;1840990;78;21003;-70
2022/09/18 04:39:21;;;;;;;0.62;0.20;;;;;;;8.23;82.61;94421.47;1840444;78;20979;-70
2022/09/18 04:41:49;;;;;;;0.10;0.10;;;;;;;8.24;83.37;94427.16;1836934;78;21130;-70
2022/09/18 04:44:16;;;;;;;0.10;0.10;;;;;;;8.24;83.93;94429.78;1807186;78;21012;-70
2022/09/18 04:46:43;;;;;;;3.27;0.20;;;;;;;8.35;83.70;94433.88;1835313;78;21027;-70
2022/09/18 04:49:10;;;;;;;0.33;0.20;;;;;;;8.40;83.78;94438.12;1835229;78;20993;-69
2022/09/18 04:51:37;;;;;;;0.10;0.10;;;;;;;8.49;83.43;94436.13;1835245;78;21019;-70
2022/09/18 04:54:04;;;;;;;0.10;0.10;;;;;;;8.52;83.17;94442.63;1834886;78;21058;-70
2022/09/18 04:56:32;;;;;;;0.28;0.20;;;;;;;8.56;82.42;94429.32;1835382;78;21047;-70
2022/09/18 04:58:59;;;;;;;0.17;0.13;;;;;;;8.63;83.08;94443.16;1834722;78;21019;-70
2022/09/18 05:01:27;;;;;;;0.10;0.10;;;;;;;8.73;83.11;94442.44;1834895;78;21016;-70
2022/09/18 05:03:53;;;;;;;0.10;0.10;;;;;;;8.84;83.25;94451.74;1835149;78;20975;-69
2022/09/18 05:06:23;;;;;;;0.20;0.20;;;;;;;8.81;82.81;94447.86;1833889;78;21012;-70
2022/09/18 05:08:50;;;;;;;0.80;0.30;;;;;;;8.81;82.78;94453.59;1835180;78;21046;-70
2022/09/18 05:11:18;;;;;;;0.62;0.25;;;;;;;8.84;82.85;94456.11;1834998;78;21023;-70
2022/09/18 05:13:51;;;;;;;0.25;0.25;;;;;;;8.83;82.52;94464.92;1835252;78;21023;-70
2022/09/18 05:16:18;;;;;;;0.57;0.50;;;;;;;8.86;83.02;94469.63;1807773;78;21523;-70
2022/09/18 05:18:47;;;;;;;0.30;0.20;;;;;;;8.81;82.24;94475.94;1833196;78;21054;-70
2022/09/18 05:21:13;;;;;;;0.30;0.30;;;;;;;8.82;82.32;94480.28;1834891;78;21012;-70
2022/09/18 05:23:43;;;;;;;0.40;0.30;;;;;;;8.86;83.05;94484.56;1835375;78;21026;-69
2022/09/18 05:26:10;;;;;;;2.50;0.40;;;;;;;8.86;82.25;94481.47;1835141;78;21012;-70
2022/09/18 05:28:38;;;;;;;0.70;0.50;;;;;;;8.90;81.90;94486.66;1835293;78;20999;-70
2022/09/18 05:31:05;;;;;;;0.68;0.40;;;;;;;8.93;80.83;94487.88;1835167;78;21533;-70
2022/09/18 05:33:33;;;;;;;0.30;0.30;;;;;;;8.92;80.52;94490.08;1834745;78;21043;-69
2022/09/18 05:36:04;;;;;;;0.68;0.60;;;;;;;8.97;81.59;94497.37;1835334;78;20996;-70
2022/09/18 05:38:31;;;;;;;0.40;0.40;;;;;;;8.94;81.17;94492.22;1835169;78;21018;-70
2022/09/18 05:41:02;;;;;;;1.15;0.55;;;;;;;8.91;80.53;94498.44;1833921;78;21560;-70
2022/09/18 05:43:29;;;;;;;0.65;0.47;;;;;;;8.94;80.65;94500.11;1831615;78;21035;-70
2022/09/18 05:45:56;;;;;;;0.60;0.60;;;;;;;8.97;81.19;94506.16;1831730;78;21004;-70
2022/09/18 05:48:25;;;;;;;0.60;0.45;;;;;;;9.05;81.46;94504.16;1830265;78;21489;-70
2022/09/18 05:50:52;;;;;;;2.60;1.60;;;;;;;9.12;81.29;94509.22;1831541;78;20952;-70
2022/09/18 05:53:20;;;;;;;3.25;2.08;;;;;;;9.07;80.74;94503.66;1831541;78;21521;-69
2022/09/18 05:56:01;;;;;;;1.02;0.53;;;;;;;9.15;80.75;94510.44;1830939;78;21103;-70
2022/09/18 05:58:29;;;;;;;49.38;22.32;;;;;;;9.19;81.15;94514.70;1831282;78;21016;-70
2022/09/18 06:00:58;;;;;;;1.72;1.40;;;;;;;9.27;81.36;94512.27;1831489;78;21039;-70
2022/09/18 06:03:26;;;;;;;3.50;2.62;;;;;;;9.32;81.16;94508.14;1831756;78;21071;-70
2022/09/18 06:05:54;;;;;;;2.05;0.70;;;;;;;9.42;81.91;94512.21;1831189;78;20988;-70
2022/09/18 06:08:23;;;;;;;0.60;0.60;;;;;;;9.54;81.35;94508.34;1831177;78;21035;-70
2022/09/18 06:10:50;;;;;;;1.30;0.60;;;;;;;9.59;80.71;94515.64;1831599;78;21004;-70
2022/09/18 06:13:18;;;;;;;1.35;0.90;;;;;;;9.65;80.84;94513.25;1831575;78;21024;-69
2022/09/18 06:15:51;;;;;;;3.17;1.40;;;;;;;9.65;80.90;94517.20;1831163;78;21004;-70
2022/09/18 06:18:19;;;;;;;1.60;1.47;;;;;;;9.71;81.11;94519.20;1831284;78;21092;-70
2022/09/18 06:20:56;;;;;;;1.55;1.45;;;;;;;9.80;80.79;94518.02;1831191;78;21032;-70
2022/09/18 06:23:27;;;;;;;3.47;1.20;;;;;;;9.87;80.95;94519.55;1800270;78;21058;-70
2022/09/18 06:26:05;;;;;;;1.20;1.10;;;;;;;9.88;79.30;94521.75;1831384;78;21461;-70
2022/09/18 06:28:33;;;;;;;1.98;1.12;;;;;;;9.78;80.28;94521.62;1799412;78;21026;-70
2022/09/18 06:31:03;;;;;;;1.10;1.05;;;;;;;9.77;80.10;94525.17;1831714;78;20980;-70
2022/09/18 06:33:34;;;;;;;1.57;0.82;;;;;;;9.65;78.49;94527.31;1830264;78;21012;-70
2022/09/18 06:36:05;;;;;;;1.42;1.32;;;;;;;9.62;80.17;94531.33;1831588;78;21474;-69
2022/09/18 06:38:32;;;;;;;1.40;1.20;;;;;;;9.68;80.53;94536.42;1830456;78;21059;-70
2022/09/18 06:40:59;;;;;;;1.12;1.00;;;;;;;9.72;81.10;94547.71;1831574;78;21023;-69
2022/09/18 06:43:49;;;;;;;1.72;1.02;;;;;;;9.75;80.95;94544.54;1831196;78;21486;-70
2022/09/18 06:46:28;;;;;;;1.45;1.05;;;;;;;9.79;81.16;94547.92;1811113;78;21421;-70
2022/09/18 06:48:55;;;;;;;1.22;1.12;;;;;;;9.85;81.26;94554.33;1831294;78;21027;-70
2022/09/18 06:51:21;;;;;;;0.98;0.70;;;;;;;9.89;80.13;94564.30;1831496;78;21520;-70
2022/09/18 06:53:52;;;;;;;0.50;0.50;;;;;;;9.91;79.75;94565.12;1827349;78;21008;-70
2022/09/18 06:56:19;;;;;;;0.60;0.60;;;;;;;9.93;80.52;94572.06;1831563;78;21072;-70
2022/09/18 06:58:46;;;;;;;0.62;0.60;;;;;;;9.99;81.21;94577.58;1831362;78;20984;-69
2022/09/18 07:01:14;;;;;;;0.80;0.50;;;;;;;10.05;81.42;94577.83;1831682;78;21114;-70
2022/09/18 07:03:43;;;;;;;0.40;0.35;;;;;;;10.14;81.51;94579.71;1831448;78;21090;-70
2022/09/18 07:06:11;;;;;;;0.30;0.30;;;;;;;10.13;80.72;94585.02;1830625;78;20980;-70
2022/09/18 07:08:42;;;;;;;0.30;0.30;;;;;;;10.13;80.03;94591.17;1831803;78;20980;-70
2022/09/18 07:11:16;;;;;;;0.40;0.40;;;;;;;10.12;80.71;94587.27;1812159;78;21516;-69
2022/09/18 07:13:44;;;;;;;0.20;0.20;;;;;;;10.10;79.09;94595.67;1831956;78;21039;-70
2022/09/18 07:16:11;;;;;;;1.00;0.42;;;;;;;10.07;79.83;94590.05;1831767;78;20980;-70
2022/09/18 07:18:37;;;;;;;0.50;0.35;;;;;;;10.07;79.24;94591.36;1831851;78;20956;-70
2022/09/18 07:21:05;;;;;;;0.53;0.40;;;;;;;10.11;81.57;94598.27;1831474;78;21569;-70
2022/09/18 07:23:34;;;;;;;0.65;0.53;;;;;;;10.14;79.88;94606.06;1831345;78;21003;-70
2022/09/18 07:26:03;;;;;;;0.62;0.62;;;;;;;10.09;80.20;94598.77;1831655;78;21512;-70
2022/09/18 07:28:30;;;;;;;0.98;0.70;;;;;;;10.10;81.52;94606.21;1831699;78;21027;-70
2022/09/18 07:31:04;;;;;;;0.90;0.90;;;;;;;10.18;80.78;94618.70;1830962;78;21512;-70
2022/09/18 07:33:31;;;;;;;0.60;0.60;;;;;;;10.11;78.92;94608.81;1831751;78;21031;-70
2022/09/18 07:36:04;;;;;;;0.50;0.50;;;;;;;10.17;79.52;94612.55;1831809;78;21006;-70
2022/09/18 07:38:33;;;;;;;0.70;0.70;;;;;;;10.17;80.38;94619.14;1831384;78;21071;-69
2022/09/18 07:41:01;;;;;;;0.50;0.50;;;;;;;10.29;79.93;94617.06;1832007;78;21007;-69
2022/09/18 07:43:30;;;;;;;1.12;0.40;;;;;;;10.33;80.80;94625.26;1831699;78;21092;-70
2022/09/18 07:45:58;;;;;;;0.47;0.47;;;;;;;10.44;80.27;94619.65;1831651;78;20984;-70
2022/09/18 07:48:25;;;;;;;0.62;0.40;;;;;;;10.58;80.97;94627.94;1831511;78;21505;-70
2022/09/18 07:50:58;;;;;;;0.30;0.30;;;;;;;10.70;80.02;94627.52;1831741;78;20948;-70
2022/09/18 07:53:25;;;;;;;0.35;0.35;;;;;;;10.69;78.76;94623.63;1831755;78;21438;-70
2022/09/18 07:55:54;;;;;;;0.82;0.30;;;;;;;10.71;79.37;94641.13;1831774;78;21014;-70
2022/09/18 07:58:23;;;;;;;0.23;0.23;;;;;;;10.85;80.20;94636.69;1831819;78;21039;-70
2022/09/18 08:01:05;;;;;;;0.55;0.55;;;;;;;11.04;79.07;94638.23;1831741;78;21027;-70
2022/09/18 08:03:36;;;;;;;7.10;4.80;;;;;;;11.14;79.16;94634.34;1800331;78;21012;-70
2022/09/18 08:06:12;;;;;;;3.33;1.52;;;;;;;11.15;77.33;94645.29;1831638;78;20983;-70
2022/09/18 08:08:57;;;;;;;2.62;2.37;;;;;;;10.99;76.64;94642.81;1831780;78;21008;-70
2022/09/18 08:11:25;;;;;;;2.10;2.00;;;;;;;11.06;79.27;94646.92;1829214;78;20976;-69
2022/09/18 08:13:56;;;;;;;0.57;0.55;;;;;;;11.03;78.57;94649.22;1831388;78;21123;-70
2022/09/18 08:16:25;;;;;;;0.40;0.40;;;;;;;11.04;78.11;94649.64;1826398;78;21052;-70
2022/09/18 08:19:02;;;;;;;0.30;0.30;;;;;;;11.05;78.07;94659.73;1801614;78;21055;-70
2022/09/18 08:21:31;;;;;;;0.42;0.40;;;;;;;10.89;77.52;94667.34;1828475;78;21044;-69
2022/09/18 08:24:00;;;;;;;1.22;0.60;;;;;;;10.75;77.48;94670.44;1831735;78;21481;-70
2022/09/18 08:26:27;;;;;;;0.40;0.40;;;;;;;10.50;77.42;94680.09;1831876;78;21048;-70
2022/09/18 08:28:54;;;;;;;0.68;0.42;;;;;;;10.43;78.61;94674.14;1831283;78;21146;-70
2022/09/18 08:31:21;;;;;;;0.68;0.40;;;;;;;10.32;78.08;94694.73;1831401;78;21506;-70
2022/09/18 08:33:51;;;;;;;0.80;0.57;;;;;;;10.21;79.10;94701.64;1831638;78;21497;-70
2022/09/18 08:36:18;;;;;;;0.40;0.40;;;;;;;10.15;79.31;94712.36;1831606;78;21007;-70
2022/09/18 08:38:59;;;;;;;0.75;0.30;;;;;;;9.97;77.63;94715.11;1805840;78;21029;-70
2022/09/18 08:41:51;;;;;;;0.98;0.40;;;;;;;9.83;78.61;94718.64;1829942;78;21020;-70
2022/09/18 08:44:26;;;;;;;1.47;0.55;;;;;;;9.74;79.42;94721.07;1796278;78;21056;-70
2022/09/18 08:47:24;;;;;;;1.32;0.75;;;;;;;9.75;79.29;94746.48;1831681;78;21000;-70
2022/09/18 08:49:57;;;;;;;1.32;1.00;;;;;;;9.44;78.38;94735.52;1831541;78;20992;-69
2022/09/18 08:52:28;;;;;;;2.55;0.80;;;;;;;9.17;79.98;94739.80;1799937;78;21000;-69
2022/09/18 08:55:37;;;;;;;0.80;0.80;;;;;;;9.16;80.35;94737.19;1733459;83;21032;-70
2022/09/18 08:58:37;;;;;;;2.22;1.17;;;;;;;9.14;81.05;94741.63;1733492;83;20957;-70
2022/09/18 09:01:15;;;;;;;2.12;0.93;;;;;;;9.35;82.63;94745.44;1804806;78;21031;-70
2022/09/18 09:03:57;;;;;;;2.12;1.00;;;;;;;9.52;82.90;94741.88;1829973;78;21529;-70
2022/09/18 09:06:32;;;;;;;0.93;0.82;;;;;;;9.59;81.98;94755.30;1831309;78;21091;-70
2022/09/18 09:09:31;;;;;;;1.20;0.80;;;;;;;9.63;81.77;94746.41;1827455;78;20988;-70
2022/09/18 09:12:29;;;;;;;1.17;0.90;;;;;;;9.79;83.84;94744.19;1831350;78;21035;-70
2022/09/18 09:15:09;;;;;;;1.50;0.70;;;;;;;9.91;81.62;94757.01;1831498;78;21007;-70
2022/09/18 09:18:16;;;;;;;0.80;0.50;;;;;;;9.98;81.72;94764.29;1831603;78;21008;-70
2022/09/18 09:20:50;;;;;;;2.92;2.70;;;;;;;10.09;81.37;94775.36;1831547;78;21050;-69
2022/09/18 09:23:41;;;;;;;0.80;0.50;;;;;;;10.04;79.24;94772.00;1831842;78;21524;-70
2022/09/18 09:26:17;;;;;;;0.55;0.55;;;;;;;9.94;79.10;94782.41;1829440;78;21130;-70
2022/09/18 09:28:59;;;;;;;0.70;0.50;;;;;;;9.94;79.39;94782.41;1830238;78;20992;-70
2022/09/18 09:31:49;;;;;;;0.53;0.53;;;;;;;10.07;82.24;94787.72;1831245;78;21068;-70
2022/09/18 09:34:39;;;;;;;3.20;2.80;;;;;;;9.97;78.81;94796.34;1829511;78;21047;-70
2022/09/18 09:37:16;;;;;;;1.67;1.57;;;;;;;10.04;80.48;94790.91;1829748;78;21024;-70
2022/09/18 09:39:56;;;;;;;0.80;0.80;;;;;;;10.15;80.94;94800.67;1831703;78;21075;-70
2022/09/18 09:42:34;;;;;;;0.53;0.50;;;;;;;10.17;78.96;94805.45;1831697;78;21028;-70
2022/09/18 09:45:31;;;;;;;0.78;0.78;;;;;;;9.96;77.59;94806.48;1830865;78;21089;-69
2022/09/18 09:48:20;;;;;;;2.40;0.93;;;;;;;9.79;78.48;94807.88;1831781;78;21070;-70
2022/09/18 09:51:32;;;;;;;4.67;1.42;;;;;;;9.57;77.59;94817.67;1831388;78;21019;-70
2022/09/18 09:54:01;;;;;;;1.67;1.20;;;;;;;9.48;78.58;94825.38;1831213;78;21023;-70
2022/09/18 09:56:46;;;;;;;2.58;1.50;;;;;;;9.52;80.07;94829.67;1831717;78;21534;-69
2022/09/18 09:59:35;;;;;;;2.22;1.17;;;;;;;9.64;80.91;94829.77;1831413;78;20973;-69
2022/09/18 10:02:51;;;;;;;4.97;1.80;;;;;;;9.76;80.22;94837.80;1830301;78;20991;-70
2022/09/18 10:05:39;;;;;;;4.03;1.70;;;;;;;10.05;79.80;94826.89;1831540;78;21576;-70
2022/09/18 10:08:24;;;;;;;3.77;1.40;;;;;;;10.42;79.92;94824.06;1831604;78;21663;-69
2022/09/18 10:11:01;;;;;;;2.50;1.65;;;;;;;10.92;78.76;94843.20;1831904;78;20991;-70
2022/09/18 10:13:51;;;;;;;1.72;1.20;;;;;;;11.17;75.37;94841.48;1831390;78;21011;-70
2022/09/18 10:16:26;;;;;;;2.60;1.37;;;;;;;11.28;72.06;94827.92;1831757;78;21494;-69
2022/09/18 10:18:54;;;;;;;3.60;1.45;;;;;;;11.38;74.24;94828.02;1831617;78;21034;-69
2022/09/18 10:21:25;;;;;;;4.85;1.52;;;;;;;11.58;74.77;94843.19;1831541;78;20971;-70
2022/09/18 10:24:21;;;;;;;1.87;1.27;;;;;;;11.52;70.60;94831.52;1831924;78;21011;-69
2022/09/18 10:26:53;;;;;;;2.77;1.20;;;;;;;11.77;71.60;94842.53;1831659;78;21030;-69
2022/09/18 10:29:20;;;;;;;2.95;1.30;;;;;;;11.67;68.00;94844.20;1830720;78;21059;-70
2022/09/18 10:31:54;;;;;;;2.77;1.10;;;;;;;11.41;67.62;94839.79;1831371;78;21033;-70
2022/09/18 10:34:47;;;;;;;3.17;1.17;;;;;;;11.14;68.41;94848.66;1831519;78;20996;-69
2022/09/18 10:37:23;;;;;;;1.80;1.17;;;;;;;11.10;71.36;94852.30;1831653;78;20989;-69
2022/09/18 10:40:00;;;;;;;3.70;1.60;;;;;;;11.12;69.93;94851.34;1831571;78;21058;-69
2022/09/18 10:42:30;;;;;;;4.20;2.12;;;;;;;11.15;71.64;94860.94;1831546;78;21011;-69
2022/09/18 10:45:04;;;;;;;2.02;1.00;;;;;;;11.03;69.97;94859.08;1829088;78;21524;-69
2022/09/18 10:47:35;;;;;;;3.45;1.00;;;;;;;10.96;70.94;94881.33;1832126;78;20995;-69
2022/09/18 10:50:14;;;;;;;1.95;0.75;;;;;;;10.92;70.06;94890.25;1831768;78;21035;-69
2022/09/18 10:52:47;;;;;;;4.03;1.10;;;;;;;10.82;70.20;94888.34;1831587;78;21004;-70
2022/09/18 10:55:25;;;;;;;6.60;1.20;;;;;;;10.73;71.18;94873.24;1831195;78;21051;-69
2022/09/18 10:57:59;;;;;;;1.98;1.10;;;;;;;10.66;71.98;94873.91;1831474;78;21512;-70
2022/09/18 11:00:33;;;;;;;1.80;1.05;;;;;;;10.80;73.60;94869.52;1832102;78;21003;-69
2022/09/18 11:03:20;;;;;;;3.65;1.25;;;;;;;11.47;76.62;94860.73;1831735;78;21018;-69
2022/09/18 11:06:01;;;;;;;2.77;1.45;;;;;;;12.30;74.70;94860.95;1831481;78;21016;-69
2022/09/18 11:08:36;;;;;;;1.30;0.70;;;;;;;13.05;74.61;94846.11;1831810;78;21099;-69
2022/09/18 11:11:12;;;;;;;2.10;0.95;;;;;;;13.69;69.77;94847.08;1831709;78;21026;-69
2022/09/18 11:13:57;;;;;;;3.55;0.85;;;;;;;14.20;68.19;94852.36;1831825;78;21544;-69
2022/09/18 11:16:38;;;;;;;3.12;0.85;;;;;;;14.35;61.75;94858.30;1799071;78;21039;-70
2022/09/18 11:19:34;;;;;;;4.47;0.95;;;;;;;13.69;59.82;94861.66;1800005;78;21004;-70
2022/09/18 11:22:06;;;;;;;2.62;0.70;;;;;;;13.08;62.15;94869.84;1831146;78;20984;-70
2022/09/18 11:24:37;;;;;;;1.27;0.70;;;;;;;13.82;63.39;94864.17;1830553;78;20971;-70
2022/09/18 11:27:22;;;;;;;2.30;0.75;;;;;;;14.49;60.77;94855.03;1831239;78;21015;-70
2022/09/18 11:29:50;;;;;;;1.35;0.60;;;;;;;15.11;60.49;94864.52;1831897;78;21030;-69
2022/09/18 11:32:30;;;;;;;2.20;0.90;;;;;;;15.47;55.61;94864.13;1831689;78;21023;-69
2022/09/18 11:35:02;;;;;;;2.08;0.90;;;;;;;15.27;56.00;94863.33;1831287;78;21059;-70
2022/09/18 11:37:54;;;;;;;1.35;0.80;;;;;;;14.24;55.52;94868.08;1831203;78;21018;-70
2022/09/18 11:40:32;;;;;;;2.80;0.80;;;;;;;13.91;57.64;94875.72;1830963;78;21039;-70
2022/09/18 11:43:04;;;;;;;1.50;0.80;;;;;;;13.81;59.95;94874.39;1831355;78;21058;-70
2022/09/18 11:45:52;;;;;;;4.55;1.00;;;;;;;13.57;58.66;94865.20;1831191;78;20999;-70
2022/09/18 11:48:48;;;;;;;2.90;0.70;;;;;;;13.98;61.62;94871.00;1831685;78;21502;-70
2022/09/18 11:51:42;;;;;;;1.60;0.78;;;;;;;14.56;59.08;94873.73;1823239;78;21036;-70
2022/09/18 11:54:18;;;;;;;2.75;0.68;;;;;;;14.00;57.51;94871.80;1831465;78;21027;-70
2022/09/18 11:56:49;;;;;;;1.37;0.57;;;;;;;14.33;57.02;94871.23;1829935;78;21051;-70
2022/09/18 11:59:34;;;;;;;2.35;0.68;;;;;;;14.08;56.11;94857.73;1800214;78;21043;-70
2022/09/18 12:02:29;;;;;;;1.40;0.80;;;;;;;14.95;58.03;94864.87;1831720;78;20964;-70
2022/09/18 12:05:36;;;;;;;1.72;0.80;;;;;;;15.32;57.75;94859.98;1805596;78;20992;-70
2022/09/18 12:08:51;;;;;;;1.22;0.55;;;;;;;15.39;57.46;94863.18;1831242;78;21445;-69
2022/09/18 12:11:46;;;;;;;1.50;0.60;;;;;;;14.98;53.83;94875.34;1831833;78;21016;-69
2022/09/18 12:14:23;;;;;;;3.70;0.70;;;;;;;14.46;59.40;94871.08;1831052;78;21422;-70
2022/09/18 12:17:13;;;;;;;1.10;0.50;;;;;;;14.69;55.02;94871.37;1830111;78;21019;-70